createdAt,value
2018-05-18T00:00:04.111Z,98363.83
2018-05-18T00:02:31.607Z,98374.81
2018-05-18T00:04:59.085Z,98371.86
2018-05-18T00:07:26.744Z,98371.75
2018-05-18T00:09:54.234Z,98367.48
2018-05-18T00:12:21.716Z,98377.37
2018-05-18T00:14:49.209Z,98371.09
2018-05-18T00:17:16.697Z,98369.03
2018-05-18T00:19:44.188Z,98368.31
2018-05-18T00:22:11.668Z,98365.16
2018-05-18T00:24:39.163Z,98369.41
2018-05-18T00:27:06.637Z,98373.41
2018-05-18T00:29:34.111Z,98374.50
2018-05-18T00:32:01.604Z,98373.84
2018-05-18T00:34:29.080Z,98388.66
2018-05-18T00:36:56.567Z,98379.30
2018-05-18T00:39:24.039Z,98381.70
2018-05-18T00:41:51.780Z,98381.70
2018-05-18T00:44:19.284Z,98385.24
2018-05-18T00:46:46.756Z,98390.89
2018-05-18T00:49:14.241Z,98383.31
2018-05-18T00:51:41.708Z,98380.73
2018-05-18T00:54:09.221Z,98375.80
2018-05-18T00:56:36.695Z,98377.67
2018-05-18T00:59:04.168Z,98386.48
2018-05-18T01:01:31.647Z,98392.95
2018-05-18T01:03:59.132Z,98391.61
2018-05-18T01:06:26.632Z,98394.48
2018-05-18T01:08:54.096Z,98390.97
2018-05-18T01:11:21.577Z,98395.95
2018-05-18T01:13:49.070Z,98387.91
2018-05-18T01:16:16.548Z,98392.25
2018-05-18T01:18:44.040Z,98393.87
2018-05-18T01:21:11.516Z,98378.64
2018-05-18T01:23:39.013Z,98380.81
2018-05-18T01:26:06.499Z,98387.13
2018-05-18T01:28:33.976Z,98384.44
2018-05-18T01:31:01.492Z,98390.45
2018-05-18T01:33:28.978Z,98397.39
2018-05-18T01:35:56.460Z,98396.94
2018-05-18T01:38:23.955Z,98405.34
2018-05-18T01:40:51.423Z,98409.88
2018-05-18T01:43:18.912Z,98416.36
2018-05-18T01:45:46.388Z,98421.81
2018-05-18T01:48:13.866Z,98415.50
2018-05-18T01:50:41.353Z,98416.91
2018-05-18T01:53:08.827Z,98413.15
2018-05-18T01:55:36.320Z,98418.69
2018-05-18T01:58:03.788Z,98417.48
2018-05-18T02:00:31.282Z,98411.34
2018-05-18T02:02:58.763Z,98409.77
2018-05-18T02:05:26.257Z,98416.08
2018-05-18T02:07:53.743Z,98415.20
2018-05-18T02:10:21.223Z,98410.78
2018-05-18T02:12:48.731Z,98410.67
2018-05-18T02:15:16.207Z,98413.88
2018-05-18T02:17:43.692Z,98408.06
2018-05-18T02:20:11.201Z,98400.91
2018-05-18T02:22:38.709Z,98404.38
2018-05-18T02:25:06.208Z,98398.86
2018-05-18T02:27:33.684Z,98400.66
2018-05-18T02:30:01.171Z,98396.39
2018-05-18T02:32:28.685Z,98403.20
2018-05-18T02:34:56.171Z,98407.44
2018-05-18T02:37:23.670Z,98399.41
2018-05-18T02:39:51.167Z,98398.05
2018-05-18T02:42:18.644Z,98398.98
2018-05-18T02:44:46.150Z,98404.45
2018-05-18T02:47:13.630Z,98402.39
2018-05-18T02:49:41.150Z,98407.86
2018-05-18T02:52:08.628Z,98410.74
2018-05-18T02:54:36.144Z,98408.98
2018-05-18T02:57:03.621Z,98417.44
2018-05-18T02:59:31.111Z,98413.48
2018-05-18T03:01:58.620Z,98417.81
2018-05-18T03:04:26.105Z,98419.41
2018-05-18T03:06:53.607Z,98422.39
2018-05-18T03:09:21.328Z,98425.86
2018-05-18T03:11:48.833Z,98430.28
2018-05-18T03:14:16.337Z,98425.30
2018-05-18T03:16:43.812Z,98425.48
2018-05-18T03:19:11.309Z,98416.09
2018-05-18T03:21:38.780Z,98419.13
2018-05-18T03:24:06.276Z,98423.41
2018-05-18T03:26:33.754Z,98424.39
2018-05-18T03:29:01.248Z,98423.61
2018-05-18T03:31:28.752Z,98427.20
2018-05-18T03:33:56.224Z,98427.12
2018-05-18T03:36:23.734Z,98429.77
2018-05-18T03:38:51.218Z,98432.06
2018-05-18T03:41:18.692Z,98432.70
2018-05-18T03:43:46.183Z,98437.35
2018-05-18T03:46:13.659Z,98440.14
2018-05-18T03:48:41.191Z,98442.62
2018-05-18T03:51:08.659Z,98445.64
2018-05-18T03:53:36.148Z,98438.69
2018-05-18T03:56:03.638Z,98444.94
2018-05-18T03:58:31.119Z,98437.94
2018-05-18T04:00:58.612Z,98443.95
2018-05-18T04:03:37.865Z,98436.44
2018-05-18T04:06:17.132Z,98447.03
2018-05-18T04:08:53.625Z,98455.20
2018-05-18T04:11:21.117Z,98453.42
2018-05-18T04:13:48.592Z,98450.06
2018-05-18T04:16:16.074Z,98455.88
2018-05-18T04:18:43.577Z,98455.96
2018-05-18T04:21:11.052Z,98458.48
2018-05-18T04:23:38.542Z,98456.56
2018-05-18T04:26:06.017Z,98459.56
2018-05-18T04:28:33.518Z,98460.45
2018-05-18T04:31:01.089Z,98463.93
2018-05-18T04:33:28.507Z,98458.77
2018-05-18T04:35:56.001Z,98458.65
2018-05-18T04:38:23.476Z,98456.00
2018-05-18T04:40:51.268Z,98457.42
2018-05-18T04:43:18.762Z,98453.02
2018-05-18T04:45:46.282Z,98450.28
2018-05-18T04:48:13.967Z,98456.70
2018-05-18T04:50:41.439Z,98452.56
2018-05-18T04:53:08.951Z,98456.89
2018-05-18T04:55:36.425Z,98463.08
2018-05-18T04:58:03.900Z,98461.14
2018-05-18T05:00:31.392Z,98462.28
2018-05-18T05:02:58.856Z,98464.59
2018-05-18T05:05:26.374Z,98465.31
2018-05-18T05:07:53.872Z,98463.74
2018-05-18T05:10:21.566Z,98457.33
2018-05-18T05:12:49.065Z,98462.34
2018-05-18T05:15:16.544Z,98466.48
2018-05-18T05:17:44.035Z,98467.63
2018-05-18T05:20:11.501Z,98468.08
2018-05-18T05:22:38.972Z,98465.17
2018-05-18T05:25:06.470Z,98460.39
2018-05-18T05:27:33.942Z,98464.27
2018-05-18T05:30:01.425Z,98464.35
2018-05-18T05:32:28.897Z,98465.72
2018-05-18T05:34:56.361Z,98474.06
2018-05-18T05:37:23.859Z,98474.70
2018-05-18T05:39:51.332Z,98468.77
2018-05-18T05:42:18.825Z,98470.87
2018-05-18T05:44:46.307Z,98476.53
2018-05-18T05:47:13.776Z,98479.25
2018-05-18T05:49:41.271Z,98476.28
2018-05-18T05:52:08.737Z,98478.80
2018-05-18T05:54:36.224Z,98475.87
2018-05-18T05:57:03.684Z,98480.43
2018-05-18T05:59:31.152Z,98486.55
2018-05-18T06:01:58.635Z,98482.88
2018-05-18T06:04:26.107Z,98483.87
2018-05-18T06:06:53.596Z,98480.35
2018-05-18T06:09:21.072Z,98488.66
2018-05-18T06:11:48.539Z,98490.32
2018-05-18T06:14:16.028Z,98492.56
2018-05-18T06:16:43.496Z,98494.92
2018-05-18T06:19:10.984Z,98495.42
2018-05-18T06:21:38.456Z,98495.47
2018-05-18T06:24:05.916Z,98492.80
2018-05-18T06:26:33.409Z,98485.98
2018-05-18T06:29:00.875Z,98493.24
2018-05-18T06:31:28.379Z,98485.87
2018-05-18T06:33:55.851Z,98493.02
2018-05-18T06:36:23.342Z,98494.38
2018-05-18T06:38:50.832Z,98494.45
2018-05-18T06:41:18.349Z,98489.72
2018-05-18T06:43:45.922Z,98493.94
2018-05-18T06:46:13.392Z,98487.93
2018-05-18T06:48:40.889Z,98492.53
2018-05-18T06:51:08.368Z,98489.97
2018-05-18T06:53:35.839Z,98485.59
2018-05-18T06:56:03.335Z,98491.05
2018-05-18T06:58:30.796Z,98491.60
2018-05-18T07:00:58.260Z,98492.97
2018-05-18T07:03:25.740Z,98498.38
2018-05-18T07:05:53.207Z,98490.92
2018-05-18T07:08:20.688Z,98492.71
2018-05-18T07:10:48.628Z,98492.11
2018-05-18T07:13:16.093Z,98495.81
2018-05-18T07:15:43.581Z,98508.45
2018-05-18T07:18:11.046Z,98508.40
2018-05-18T07:20:38.545Z,98503.64
2018-05-18T07:23:06.093Z,98504.09
2018-05-18T07:25:33.524Z,98513.09
2018-05-18T07:28:00.996Z,98508.72
2018-05-18T07:30:28.464Z,98512.97
2018-05-18T07:32:55.954Z,98507.59
2018-05-18T07:35:23.419Z,98513.84
2018-05-18T07:37:50.913Z,98513.64
2018-05-18T07:40:18.391Z,98499.07
2018-05-18T07:42:45.865Z,98501.66
2018-05-18T07:45:13.348Z,98515.66
2018-05-18T07:47:40.817Z,98513.72
2018-05-18T07:50:08.321Z,98506.53
2018-05-18T07:52:35.783Z,98502.99
2018-05-18T07:55:03.255Z,98503.34
2018-05-18T07:57:30.735Z,98507.42
2018-05-18T07:59:58.201Z,98516.34
2018-05-18T08:02:25.688Z,98511.66
2018-05-18T08:04:53.157Z,98513.20
2018-05-18T08:07:20.645Z,98517.01
2018-05-18T08:09:48.124Z,98519.89
2018-05-18T08:12:15.593Z,98528.48
2018-05-18T08:14:43.077Z,98524.70
2018-05-18T08:17:10.553Z,98519.91
2018-05-18T08:19:38.036Z,98524.49
2018-05-18T08:22:05.515Z,98523.45
2018-05-18T08:24:33.013Z,98519.96
2018-05-18T08:27:12.179Z,98519.56
2018-05-18T08:29:39.623Z,98522.43
2018-05-18T08:32:07.079Z,98519.34
2018-05-18T08:34:34.549Z,98534.31
2018-05-18T08:37:02.053Z,98532.48
2018-05-18T08:39:29.515Z,98530.75
2018-05-18T08:41:57.011Z,98542.01
2018-05-18T08:44:24.504Z,98536.52
2018-05-18T08:46:52.456Z,98527.02
2018-05-18T08:49:19.939Z,98526.27
2018-05-18T08:51:47.414Z,98532.44
2018-05-18T08:54:14.899Z,98527.67
2018-05-18T08:56:42.365Z,98530.80
2018-05-18T08:59:09.844Z,98523.89
2018-05-18T09:01:37.328Z,98514.77
2018-05-18T09:04:04.800Z,98521.72
2018-05-18T09:06:32.295Z,98528.48
2018-05-18T09:08:59.821Z,98520.25
2018-05-18T09:11:27.240Z,98528.98
2018-05-18T09:13:54.717Z,98528.18
2018-05-18T09:16:22.183Z,98520.17
2018-05-18T09:18:49.666Z,98520.75
2018-05-18T09:21:17.133Z,98522.78
2018-05-18T09:23:44.602Z,98524.72
2018-05-18T09:26:12.092Z,98534.84
2018-05-18T09:28:39.570Z,98549.47
2018-05-18T09:31:07.034Z,98530.92
2018-05-18T09:33:34.517Z,98533.36
2018-05-18T09:36:01.986Z,98545.81
2018-05-18T09:38:29.670Z,98541.75
2018-05-18T09:40:57.131Z,98536.87
2018-05-18T09:43:24.595Z,98529.64
2018-05-18T09:45:52.075Z,98533.81
2018-05-18T09:48:19.540Z,98549.80
2018-05-18T09:50:47.279Z,98529.39
2018-05-18T09:53:14.743Z,98520.03
2018-05-18T09:55:42.214Z,98532.25
2018-05-18T09:58:10.127Z,98520.88
2018-05-18T10:00:37.601Z,98538.27
2018-05-18T10:03:05.100Z,98524.30
2018-05-18T10:05:32.573Z,98542.88
2018-05-18T10:08:00.037Z,98514.66
2018-05-18T10:10:27.527Z,98528.88
2018-05-18T10:12:54.984Z,98529.89
2018-05-18T10:15:22.478Z,98537.84
2018-05-18T10:17:49.940Z,98522.95
2018-05-18T10:20:17.417Z,98529.22
2018-05-18T10:22:44.901Z,98517.91
2018-05-18T10:25:12.989Z,98517.78
2018-05-18T10:27:40.480Z,98534.03
2018-05-18T10:30:07.954Z,98522.55
2018-05-18T10:32:35.428Z,98519.95
2018-05-18T10:35:02.916Z,98523.52
2018-05-18T10:37:30.383Z,98520.02
2018-05-18T10:39:57.846Z,98530.02
2018-05-18T10:42:25.331Z,98516.73
2018-05-18T10:44:52.786Z,98519.17
2018-05-18T10:47:20.276Z,98518.74
2018-05-18T10:49:47.740Z,98521.58
2018-05-18T10:52:15.196Z,98515.31
2018-05-18T10:54:42.676Z,98526.74
2018-05-18T10:57:10.136Z,98521.78
2018-05-18T10:59:37.623Z,98527.84
2018-05-18T11:02:05.083Z,98503.91
2018-05-18T11:04:32.607Z,98509.31
2018-05-18T11:07:00.178Z,98494.34
2018-05-18T11:09:27.536Z,98492.97
2018-05-18T11:11:55.015Z,98493.91
2018-05-18T11:14:22.480Z,98496.94
2018-05-18T11:16:50.220Z,98495.83
2018-05-18T11:19:17.684Z,98493.59
2018-05-18T11:21:45.160Z,98487.98
2018-05-18T11:24:12.649Z,98487.52
2018-05-18T11:26:40.112Z,98480.54
2018-05-18T11:29:07.599Z,98475.83
2018-05-18T11:31:35.064Z,98471.10
2018-05-18T11:34:02.531Z,98477.59
2018-05-18T11:36:30.013Z,98470.89
2018-05-18T11:38:57.476Z,98472.60
2018-05-18T11:41:24.958Z,98470.75
2018-05-18T11:43:52.416Z,98475.05
2018-05-18T11:46:19.875Z,98468.92
2018-05-18T11:48:47.357Z,98458.38
2018-05-18T11:51:14.820Z,98468.33
2018-05-18T11:53:42.744Z,98456.48
2018-05-18T11:56:10.208Z,98447.86
2018-05-18T11:58:37.677Z,98455.84
2018-05-18T12:01:05.160Z,98453.02
2018-05-18T12:03:32.626Z,98450.89
2018-05-18T12:06:00.121Z,98453.89
2018-05-18T12:08:28.306Z,98449.16
2018-05-18T12:10:55.775Z,98440.52
2018-05-18T12:13:23.262Z,98441.56
2018-05-18T12:15:50.738Z,98425.79
2018-05-18T12:18:18.344Z,98424.38
2018-05-18T12:20:45.806Z,98429.50
2018-05-18T12:23:13.272Z,98431.23
2018-05-18T12:25:40.757Z,98432.32
2018-05-18T12:28:08.224Z,98432.69
2018-05-18T12:30:35.720Z,98428.94
2018-05-18T12:33:03.188Z,98424.72
2018-05-18T12:35:30.849Z,98418.92
2018-05-18T12:37:58.373Z,98409.94
2018-05-18T12:40:25.819Z,98410.64
2018-05-18T12:42:53.298Z,98401.64
2018-05-18T12:45:20.767Z,98405.57
2018-05-18T12:47:48.239Z,98400.75
2018-05-18T12:50:15.724Z,98391.38
2018-05-18T12:52:43.192Z,98387.70
2018-05-18T12:55:11.080Z,98408.97
2018-05-18T12:57:38.547Z,98402.98
2018-05-18T13:00:06.012Z,98397.80
2018-05-18T13:02:34.335Z,98395.19
2018-05-18T13:05:01.811Z,98387.84
2018-05-18T13:07:29.620Z,98384.73
2018-05-18T13:09:57.088Z,98389.44
2018-05-18T13:12:25.261Z,98386.02
2018-05-18T13:14:52.747Z,98379.29
2018-05-18T13:17:20.216Z,98381.26
2018-05-18T13:19:47.702Z,98378.67
2018-05-18T13:22:15.171Z,98380.75
2018-05-18T13:24:42.637Z,98366.33
2018-05-18T13:27:10.117Z,98373.43
2018-05-18T13:29:37.700Z,98372.45
2018-05-18T13:32:05.195Z,98378.52
2018-05-18T13:34:32.661Z,98367.88
2018-05-18T13:37:00.119Z,98382.95
2018-05-18T13:39:27.608Z,98373.09
2018-05-18T13:41:55.076Z,98370.08
2018-05-18T13:44:22.580Z,98372.19
2018-05-18T13:46:50.044Z,98366.58
2018-05-18T13:49:17.552Z,98367.76
2018-05-18T13:51:45.030Z,98363.95
2018-05-18T13:54:12.500Z,98358.87
2018-05-18T13:56:39.988Z,98363.78
2018-05-18T13:59:07.476Z,98365.87
2018-05-18T14:01:34.960Z,98357.34
2018-05-18T14:04:02.425Z,98373.75
2018-05-18T14:06:29.925Z,98375.58
2018-05-18T14:08:57.384Z,98383.77
2018-05-18T14:11:24.844Z,98388.86
2018-05-18T14:13:52.321Z,98386.09
2018-05-18T14:16:19.785Z,98383.46
2018-05-18T14:18:47.260Z,98387.08
2018-05-18T14:21:14.723Z,98384.22
2018-05-18T14:23:42.959Z,98396.16
2018-05-18T14:26:10.427Z,98402.41
2018-05-18T14:28:37.892Z,98403.96
2018-05-18T14:31:05.697Z,98411.83
2018-05-18T14:33:33.148Z,98418.00
2018-05-18T14:36:00.617Z,98415.48
2018-05-18T14:38:28.107Z,98411.61
2018-05-18T14:40:55.571Z,98406.66
2018-05-18T14:43:23.049Z,98404.24
2018-05-18T14:45:50.515Z,98399.31
2018-05-18T14:48:17.991Z,98385.59
2018-05-18T14:50:45.484Z,98371.88
2018-05-18T14:53:12.969Z,98362.16
2018-05-18T14:55:40.469Z,98363.13
2018-05-18T14:58:07.938Z,98355.33
2018-05-18T15:00:35.417Z,98350.44
2018-05-18T15:03:02.895Z,98362.41
2018-05-18T15:05:30.355Z,98367.55
2018-05-18T15:07:57.855Z,98382.85
2018-05-18T15:10:25.325Z,98395.83
2018-05-18T15:12:52.791Z,98397.23
2018-05-18T15:15:20.299Z,98389.91
2018-05-18T15:17:47.833Z,98389.15
2018-05-18T15:20:15.319Z,98393.03
2018-05-18T15:22:42.789Z,98396.28
2018-05-18T15:25:10.263Z,98393.34
2018-05-18T15:27:37.749Z,98395.03
2018-05-18T15:30:05.212Z,98399.27
2018-05-18T15:32:32.690Z,98396.16
2018-05-18T15:35:00.155Z,98401.45
2018-05-18T15:37:27.722Z,98394.20
2018-05-18T15:39:55.121Z,98396.27
2018-05-18T15:42:22.580Z,98395.66
2018-05-18T15:44:50.083Z,98397.56
2018-05-18T15:47:17.544Z,98399.09
2018-05-18T15:49:45.014Z,98403.96
2018-05-18T15:52:12.519Z,98407.11
2018-05-18T15:54:39.984Z,98402.70
2018-05-18T15:57:07.465Z,98407.25
2018-05-18T15:59:34.927Z,98401.44
2018-05-18T16:02:02.412Z,98402.10
2018-05-18T16:04:29.890Z,98401.17
2018-05-18T16:06:57.925Z,98389.08
2018-05-18T16:09:25.415Z,98385.51
2018-05-18T16:11:52.871Z,98380.07
2018-05-18T16:14:20.658Z,98379.39
2018-05-18T16:16:48.124Z,98367.57
2018-05-18T16:19:15.579Z,98367.38
2018-05-18T16:21:43.053Z,98364.65
2018-05-18T16:24:10.512Z,98360.73
2018-05-18T16:26:37.995Z,98357.05
2018-05-18T16:29:05.443Z,98356.80
2018-05-18T16:31:32.911Z,98347.77
2018-05-18T16:34:00.391Z,98342.31
2018-05-18T16:36:27.852Z,98349.19
2018-05-18T16:38:55.335Z,98348.56
2018-05-18T16:41:22.800Z,98346.84
2018-05-18T16:43:50.264Z,98340.58
2018-05-18T16:46:17.751Z,98338.91
2018-05-18T16:48:45.230Z,98358.80
2018-05-18T16:51:12.715Z,98388.00
2018-05-18T16:53:40.172Z,98370.95
2018-05-18T16:56:07.657Z,98366.98
2018-05-18T16:58:35.195Z,98348.08
2018-05-18T17:01:02.659Z,98350.62
2018-05-18T17:03:30.144Z,98341.56
2018-05-18T17:05:57.611Z,98335.94
2018-05-18T17:08:25.071Z,98343.12
2018-05-18T17:10:52.536Z,98335.45
2018-05-18T17:13:19.997Z,98335.56
2018-05-18T17:15:47.463Z,98329.58
2018-05-18T17:18:14.944Z,98336.84
2018-05-18T17:20:42.433Z,98341.17
2018-05-18T17:23:09.919Z,98340.67
2018-05-18T17:25:37.368Z,98336.86
2018-05-18T17:28:04.838Z,98342.81
2018-05-18T17:30:32.288Z,98338.05
2018-05-18T17:32:59.901Z,98333.78
2018-05-18T17:35:27.304Z,98336.34
2018-05-18T17:37:54.787Z,98333.17
2018-05-18T17:40:22.343Z,98338.47
2018-05-18T17:42:49.938Z,98346.09
2018-05-18T17:45:17.428Z,98356.34
2018-05-18T17:47:44.944Z,98360.50
2018-05-18T17:50:12.471Z,98370.52
2018-05-18T17:52:39.961Z,98379.47
2018-05-18T17:55:07.453Z,98390.36
2018-05-18T17:57:34.951Z,98386.23
2018-05-18T18:00:02.424Z,98388.03
2018-05-18T18:02:30.053Z,98392.12
2018-05-18T18:04:57.580Z,98391.83
2018-05-18T18:07:25.307Z,98406.09
2018-05-18T18:09:52.804Z,98406.43
2018-05-18T18:12:20.276Z,98414.64
2018-05-18T18:14:47.769Z,98418.97
2018-05-18T18:17:15.275Z,98415.94
2018-05-18T18:19:42.787Z,98410.98
2018-05-18T18:22:10.640Z,98415.08
2018-05-18T18:24:38.134Z,98406.52
2018-05-18T18:27:05.636Z,98404.42
2018-05-18T18:29:33.100Z,98404.42
2018-05-18T18:32:02.151Z,98402.31
2018-05-18T18:34:30.622Z,98403.01
2018-05-18T18:36:59.002Z,98408.44
2018-05-18T18:39:27.448Z,98394.72
2018-05-18T18:41:55.358Z,98398.65
2018-05-18T18:44:23.601Z,98401.20
2018-05-18T18:46:52.008Z,98399.44
2018-05-18T18:49:20.116Z,98408.72
2018-05-18T18:51:48.710Z,98409.84
2018-05-18T18:54:16.752Z,98413.43
2018-05-18T18:56:44.852Z,98420.31
2018-05-18T18:59:12.676Z,98427.88
2018-05-18T19:01:40.787Z,98433.59
2018-05-18T19:04:09.415Z,98431.91
2018-05-18T19:06:37.737Z,98434.57
2018-05-18T19:09:06.696Z,98430.67
2018-05-18T19:11:34.759Z,98433.80
2018-05-18T19:14:02.848Z,98434.98
2018-05-18T19:16:30.696Z,98444.92
2018-05-18T19:18:58.976Z,98441.43
2018-05-18T19:21:27.084Z,98451.84
2018-05-18T19:23:55.290Z,98461.06
2018-05-18T19:26:23.997Z,98469.36
2018-05-18T19:28:51.493Z,98470.30
2018-05-18T19:31:19.169Z,98477.44
2018-05-18T19:33:46.983Z,98486.27
2018-05-18T19:36:14.554Z,98489.84
2018-05-18T19:38:42.070Z,98491.30
2018-05-18T19:41:09.555Z,98490.52
2018-05-18T19:43:37.032Z,98497.17
2018-05-18T19:46:04.543Z,98507.88
2018-05-18T19:48:32.049Z,98506.86
2018-05-18T19:50:59.610Z,98509.07
2018-05-18T19:53:27.092Z,98510.93
2018-05-18T19:55:54.579Z,98507.80
2018-05-18T19:58:22.099Z,98501.02
2018-05-18T20:00:49.599Z,98504.81
2018-05-18T20:03:17.103Z,98511.58
2018-05-18T20:05:44.615Z,98511.48
2018-05-18T20:08:12.124Z,98513.00
2018-05-18T20:10:39.592Z,98514.00
2018-05-18T20:13:07.079Z,98510.93
2018-05-18T20:15:34.557Z,98514.89
2018-05-18T20:18:02.132Z,98505.95
2018-05-18T20:20:29.671Z,98503.31
2018-05-18T20:22:57.147Z,98506.66
2018-05-18T20:25:24.645Z,98501.48
2018-05-18T20:27:52.129Z,98509.28
2018-05-18T20:30:19.683Z,98518.28
2018-05-18T20:32:47.160Z,98511.07
2018-05-18T20:35:14.674Z,98513.05
2018-05-18T20:37:42.149Z,98517.38
2018-05-18T20:40:09.615Z,98513.71
2018-05-18T20:42:37.179Z,98515.68
2018-05-18T20:45:04.869Z,98525.68
2018-05-18T20:47:32.593Z,98516.70
2018-05-18T20:50:00.069Z,98515.09
2018-05-18T20:52:27.548Z,98524.55
2018-05-18T20:54:55.044Z,98520.59
2018-05-18T20:57:22.507Z,98522.32
2018-05-18T20:59:51.007Z,98524.80
2018-05-18T21:02:18.488Z,98520.96
2018-05-18T21:04:45.956Z,98520.23
2018-05-18T21:07:13.719Z,98519.97
2018-05-18T21:09:41.196Z,98526.38
2018-05-18T21:12:08.682Z,98524.63
2018-05-18T21:14:37.066Z,98526.81
2018-05-18T21:17:04.712Z,98522.43
2018-05-18T21:19:32.255Z,98519.92
2018-05-18T21:21:59.805Z,98534.26
2018-05-18T21:24:27.276Z,98526.10
2018-05-18T21:26:54.768Z,98531.02
2018-05-18T21:29:22.244Z,98534.70
2018-05-18T21:31:49.717Z,98537.70
2018-05-18T21:34:17.203Z,98540.42
2018-05-18T21:36:44.672Z,98546.23
2018-05-18T21:39:12.159Z,98544.39
2018-05-18T21:41:39.619Z,98548.75
2018-05-18T21:44:07.095Z,98539.34
2018-05-18T21:46:34.579Z,98546.52
2018-05-18T21:49:02.048Z,98542.16
2018-05-18T21:51:30.279Z,98547.97
2018-05-18T21:53:57.756Z,98546.93
2018-05-18T21:56:25.224Z,98542.48
2018-05-18T21:58:52.948Z,98534.16
2018-05-18T22:01:20.436Z,98533.72
2018-05-18T22:03:47.925Z,98535.94
2018-05-18T22:06:15.612Z,98531.73
2018-05-18T22:08:43.100Z,98531.67
2018-05-18T22:11:10.910Z,98530.34
2018-05-18T22:13:38.377Z,98521.67
2018-05-18T22:16:06.136Z,98529.13
2018-05-18T22:18:33.702Z,98527.16
2018-05-18T22:21:01.344Z,98522.34
2018-05-18T22:23:29.049Z,98526.45
2018-05-18T22:25:56.600Z,98525.41
2018-05-18T22:28:24.086Z,98526.63
2018-05-18T22:30:51.641Z,98528.95
2018-05-18T22:33:19.068Z,98528.30
2018-05-18T22:35:46.541Z,98526.12
2018-05-18T22:38:14.311Z,98516.45
2018-05-18T22:40:41.907Z,98518.98
2018-05-18T22:43:09.375Z,98521.92
2018-05-18T22:45:36.877Z,98521.56
2018-05-18T22:48:04.543Z,98519.44
2018-05-18T22:50:33.128Z,98514.45
2018-05-18T22:53:00.685Z,98510.34
2018-05-18T22:55:28.156Z,98507.36
2018-05-18T22:57:55.632Z,98508.98
2018-05-18T23:00:26.833Z,98503.36
2018-05-18T23:02:54.333Z,98495.97
2018-05-18T23:05:21.805Z,98481.90
2018-05-18T23:07:49.288Z,98499.77
2018-05-18T23:10:17.115Z,98494.41
2018-05-18T23:12:44.582Z,98495.43
2018-05-18T23:15:12.070Z,98502.79
2018-05-18T23:17:39.554Z,98499.56
2018-05-18T23:20:07.049Z,98502.35
2018-05-18T23:22:34.512Z,98500.63
2018-05-18T23:25:01.989Z,98498.89
2018-05-18T23:27:29.472Z,98495.67
2018-05-18T23:29:56.948Z,98495.62
2018-05-18T23:32:24.452Z,98499.59
2018-05-18T23:34:51.920Z,98501.79
2018-05-18T23:37:19.406Z,98497.78
2018-05-18T23:39:46.895Z,98494.38
2018-05-18T23:42:14.372Z,98487.09
2018-05-18T23:44:41.883Z,98486.83
2018-05-18T23:47:09.373Z,98488.45
2018-05-18T23:49:36.875Z,98486.86
2018-05-18T23:52:04.343Z,98482.03
2018-05-18T23:54:31.817Z,98487.67
